sensor_id;sensor_type;location;lat;lon;timestamp;temperature;humidity
1996;DHT22;38556;47.068;15.408;2022-12-11T00:00:09;4.80;99.90
1996;DHT22;38556;47.068;15.408;2022-12-11T00:02:38;4.80;99.90
1996;DHT22;38556;47.068;15.408;2022-12-11T00:05:06;4.80;99.90
1996;DHT22;38556;47.068;15.408;2022-12-11T00:07:34;4.70;99.90
1996;DHT22;38556;47.068;15.408;2022-12-11T00:12:29;4.80;99.90
1996;DHT22;38556;47.068;15.408;2022-12-11T00:14:56;4.80;99.90
1996;DHT22;38556;47.068;15.408;2022-12-11T00:17:24;4.80;99.90
1996;DHT22;38556;47.068;15.408;2022-12-11T00:19:52;4.80;99.90
1996;DHT22;38556;47.068;15.408;2022-12-11T00:24:48;4.80;99.90
1996;DHT22;38556;47.068;15.408;2022-12-11T00:27:15;4.80;99.90
1996;DHT22;38556;47.068;15.408;2022-12-11T00:29:43;4.80;99.90
1996;DHT22;38556;47.068;15.408;2022-12-11T00:32:10;4.80;99.90
1996;DHT22;38556;47.068;15.408;2022-12-11T00:34:37;4.80;99.90
1996;DHT22;38556;47.068;15.408;2022-12-11T00:37:06;4.80;99.90
1996;DHT22;38556;47.068;15.408;2022-12-11T00:39:33;4.80;99.90
1996;DHT22;38556;47.068;15.408;2022-12-11T00:42:00;4.80;99.90
1996;DHT22;38556;47.068;15.408;2022-12-11T00:44:28;4.70;99.90
1996;DHT22;38556;47.068;15.408;2022-12-11T00:46:55;4.80;99.90
1996;DHT22;38556;47.068;15.408;2022-12-11T00:49:22;4.80;99.90
1996;DHT22;38556;47.068;15.408;2022-12-11T00:51:49;4.80;99.90
1996;DHT22;38556;47.068;15.408;2022-12-11T00:54:18;4.80;99.90
1996;DHT22;38556;47.068;15.408;2022-12-11T00:56:45;4.80;99.90
1996;DHT22;38556;47.068;15.408;2022-12-11T00:59:13;4.80;99.90
1996;DHT22;38556;47.068;15.408;2022-12-11T01:01:40;4.80;99.90
1996;DHT22;38556;47.068;15.408;2022-12-11T01:04:08;4.80;99.90
1996;DHT22;38556;47.068;15.408;2022-12-11T01:06:35;4.80;99.90
1996;DHT22;38556;47.068;15.408;2022-12-11T01:09:02;4.80;99.90
1996;DHT22;38556;47.068;15.408;2022-12-11T01:11:48;4.80;99.90
1996;DHT22;38556;47.068;15.408;2022-12-11T01:14:16;4.80;99.90
1996;DHT22;38556;47.068;15.408;2022-12-11T01:16:43;4.80;99.90
1996;DHT22;38556;47.068;15.408;2022-12-11T01:19:10;4.90;99.90
1996;DHT22;38556;47.068;15.408;2022-12-11T01:21:37;4.80;99.90
1996;DHT22;38556;47.068;15.408;2022-12-11T01:24:06;5.10;99.90
1996;DHT22;38556;47.068;15.408;2022-12-11T01:26:33;4.90;99.90
1996;DHT22;38556;47.068;15.408;2022-12-11T01:29:02;4.90;99.90
1996;DHT22;38556;47.068;15.408;2022-12-11T01:31:30;4.90;99.90
1996;DHT22;38556;47.068;15.408;2022-12-11T01:33:57;4.80;99.90
1996;DHT22;38556;47.068;15.408;2022-12-11T01:36:24;4.80;99.90
1996;DHT22;38556;47.068;15.408;2022-12-11T01:38:51;4.80;99.90
1996;DHT22;38556;47.068;15.408;2022-12-11T01:41:19;4.80;99.90
1996;DHT22;38556;47.068;15.408;2022-12-11T01:44:03;4.80;99.90
1996;DHT22;38556;47.068;15.408;2022-12-11T01:46:32;4.80;99.90
1996;DHT22;38556;47.068;15.408;2022-12-11T01:49:01;4.80;99.90
1996;DHT22;38556;47.068;15.408;2022-12-11T01:51:31;4.80;99.90
1996;DHT22;38556;47.068;15.408;2022-12-11T01:54:04;4.80;99.90
1996;DHT22;38556;47.068;15.408;2022-12-11T01:56:34;4.70;99.90
1996;DHT22;38556;47.068;15.408;2022-12-11T01:59:05;4.80;99.90
1996;DHT22;38556;47.068;15.408;2022-12-11T02:01:35;4.80;99.90
1996;DHT22;38556;47.068;15.408;2022-12-11T02:04:04;4.80;99.90
1996;DHT22;38556;47.068;15.408;2022-12-11T02:06:35;4.80;99.90
1996;DHT22;38556;47.068;15.408;2022-12-11T02:09:04;4.70;99.90
1996;DHT22;38556;47.068;15.408;2022-12-11T02:11:38;4.70;99.90
1996;DHT22;38556;47.068;15.408;2022-12-11T02:14:15;4.80;99.90
1996;DHT22;38556;47.068;15.408;2022-12-11T02:16:47;4.80;99.90
1996;DHT22;38556;47.068;15.408;2022-12-11T02:21:50;4.70;99.90
1996;DHT22;38556;47.068;15.408;2022-12-11T02:24:31;4.80;99.90
1996;DHT22;38556;47.068;15.408;2022-12-11T02:27:13;4.90;99.90
1996;DHT22;38556;47.068;15.408;2022-12-11T02:29:49;4.80;99.90
1996;DHT22;38556;47.068;15.408;2022-12-11T02:32:21;4.70;99.90
1996;DHT22;38556;47.068;15.408;2022-12-11T02:34:54;4.80;99.90
1996;DHT22;38556;47.068;15.408;2022-12-11T02:37:26;4.60;99.90
1996;DHT22;38556;47.068;15.408;2022-12-11T02:39:56;4.70;99.90
1996;DHT22;38556;47.068;15.408;2022-12-11T02:42:27;4.80;99.90
1996;DHT22;38556;47.068;15.408;2022-12-11T02:44:58;4.80;99.90
1996;DHT22;38556;47.068;15.408;2022-12-11T02:47:28;4.70;99.90
1996;DHT22;38556;47.068;15.408;2022-12-11T02:49:58;4.70;99.90
1996;DHT22;38556;47.068;15.408;2022-12-11T02:52:27;4.70;99.90
1996;DHT22;38556;47.068;15.408;2022-12-11T02:54:57;4.60;99.90
1996;DHT22;38556;47.068;15.408;2022-12-11T02:57:28;4.60;99.90
1996;DHT22;38556;47.068;15.408;2022-12-11T02:59:59;4.60;99.90
1996;DHT22;38556;47.068;15.408;2022-12-11T03:02:26;4.50;99.90
1996;DHT22;38556;47.068;15.408;2022-12-11T03:04:53;4.50;99.90
1996;DHT22;38556;47.068;15.408;2022-12-11T03:07:25;4.40;99.90
1996;DHT22;38556;47.068;15.408;2022-12-11T03:09:53;4.40;99.90
1996;DHT22;38556;47.068;15.408;2022-12-11T03:12:24;4.30;99.90
1996;DHT22;38556;47.068;15.408;2022-12-11T03:14:54;4.30;99.90
1996;DHT22;38556;47.068;15.408;2022-12-11T03:17:28;4.20;99.90
1996;DHT22;38556;47.068;15.408;2022-12-11T03:20:02;4.20;99.90
1996;DHT22;38556;47.068;15.408;2022-12-11T03:22:37;4.20;99.90
1996;DHT22;38556;47.068;15.408;2022-12-11T03:25:07;4.10;99.90
1996;DHT22;38556;47.068;15.408;2022-12-11T03:27:39;4.10;99.90
1996;DHT22;38556;47.068;15.408;2022-12-11T03:30:12;4.20;99.90
1996;DHT22;38556;47.068;15.408;2022-12-11T03:32:45;3.90;99.90
1996;DHT22;38556;47.068;15.408;2022-12-11T03:35:18;3.80;99.90
1996;DHT22;38556;47.068;15.408;2022-12-11T03:37:48;3.90;99.90
1996;DHT22;38556;47.068;15.408;2022-12-11T03:40:18;3.70;99.90
1996;DHT22;38556;47.068;15.408;2022-12-11T03:42:51;3.70;99.90
1996;DHT22;38556;47.068;15.408;2022-12-11T03:45:20;3.50;99.90
1996;DHT22;38556;47.068;15.408;2022-12-11T03:47:51;3.50;99.90
1996;DHT22;38556;47.068;15.408;2022-12-11T03:50:19;3.40;99.90
1996;DHT22;38556;47.068;15.408;2022-12-11T03:52:49;3.50;99.90
1996;DHT22;38556;47.068;15.408;2022-12-11T03:55:18;3.40;99.90
1996;DHT22;38556;47.068;15.408;2022-12-11T03:57:47;3.40;99.90
1996;DHT22;38556;47.068;15.408;2022-12-11T04:00:16;3.40;99.90
1996;DHT22;38556;47.068;15.408;2022-12-11T04:02:44;3.40;99.90
1996;DHT22;38556;47.068;15.408;2022-12-11T04:05:33;3.20;99.90
1996;DHT22;38556;47.068;15.408;2022-12-11T04:08:00;3.30;99.90
1996;DHT22;38556;47.068;15.408;2022-12-11T04:10:27;3.30;99.90
1996;DHT22;38556;47.068;15.408;2022-12-11T04:12:55;3.30;99.90
1996;DHT22;38556;47.068;15.408;2022-12-11T04:17:49;3.40;99.90
1996;DHT22;38556;47.068;15.408;2022-12-11T04:20:35;3.30;99.90
1996;DHT22;38556;47.068;15.408;2022-12-11T04:23:20;3.40;99.90
1996;DHT22;38556;47.068;15.408;2022-12-11T04:26:05;3.50;99.90
1996;DHT22;38556;47.068;15.408;2022-12-11T04:28:33;3.50;99.90
1996;DHT22;38556;47.068;15.408;2022-12-11T04:31:01;3.60;99.90
1996;DHT22;38556;47.068;15.408;2022-12-11T04:33:29;3.60;99.90
1996;DHT22;38556;47.068;15.408;2022-12-11T04:35:58;3.60;99.90
1996;DHT22;38556;47.068;15.408;2022-12-11T04:38:26;3.60;99.90
1996;DHT22;38556;47.068;15.408;2022-12-11T04:40:57;3.60;99.90
1996;DHT22;38556;47.068;15.408;2022-12-11T04:43:25;3.70;99.90
1996;DHT22;38556;47.068;15.408;2022-12-11T04:46:00;3.70;99.90
1996;DHT22;38556;47.068;15.408;2022-12-11T04:48:28;3.70;99.90
1996;DHT22;38556;47.068;15.408;2022-12-11T04:50:55;3.80;99.90
1996;DHT22;38556;47.068;15.408;2022-12-11T04:53:24;3.80;99.90
1996;DHT22;38556;47.068;15.408;2022-12-11T04:55:52;3.80;99.50
1996;DHT22;38556;47.068;15.408;2022-12-11T04:58:19;3.80;99.60
1996;DHT22;38556;47.068;15.408;2022-12-11T05:00:46;3.80;99.20
1996;DHT22;38556;47.068;15.408;2022-12-11T05:03:14;3.80;99.00
1996;DHT22;38556;47.068;15.408;2022-12-11T05:05:47;3.90;99.40
1996;DHT22;38556;47.068;15.408;2022-12-11T05:08:16;3.90;98.70
1996;DHT22;38556;47.068;15.408;2022-12-11T05:10:44;3.90;98.30
1996;DHT22;38556;47.068;15.408;2022-12-11T05:13:11;4.00;98.50
1996;DHT22;38556;47.068;15.408;2022-12-11T05:15:39;3.90;97.90
1996;DHT22;38556;47.068;15.408;2022-12-11T05:18:06;4.00;97.80
1996;DHT22;38556;47.068;15.408;2022-12-11T05:20:34;4.00;97.90
1996;DHT22;38556;47.068;15.408;2022-12-11T05:23:01;4.00;97.90
1996;DHT22;38556;47.068;15.408;2022-12-11T05:25:28;3.90;97.80
1996;DHT22;38556;47.068;15.408;2022-12-11T05:27:57;4.00;97.70
1996;DHT22;38556;47.068;15.408;2022-12-11T05:30:24;3.90;97.00
1996;DHT22;38556;47.068;15.408;2022-12-11T05:35:19;4.00;96.80
1996;DHT22;38556;47.068;15.408;2022-12-11T05:37:46;4.00;96.40
1996;DHT22;38556;47.068;15.408;2022-12-11T05:40:14;4.00;96.50
1996;DHT22;38556;47.068;15.408;2022-12-11T05:42:42;4.00;96.30
1996;DHT22;38556;47.068;15.408;2022-12-11T05:45:10;4.00;96.20
1996;DHT22;38556;47.068;15.408;2022-12-11T05:47:38;4.00;96.30
1996;DHT22;38556;47.068;15.408;2022-12-11T05:50:06;4.00;95.90
1996;DHT22;38556;47.068;15.408;2022-12-11T05:52:33;4.00;96.20
1996;DHT22;38556;47.068;15.408;2022-12-11T05:55:01;4.00;96.00
1996;DHT22;38556;47.068;15.408;2022-12-11T05:57:28;4.00;95.90
1996;DHT22;38556;47.068;15.408;2022-12-11T05:59:55;4.00;96.00
1996;DHT22;38556;47.068;15.408;2022-12-11T06:02:24;4.00;95.80
1996;DHT22;38556;47.068;15.408;2022-12-11T06:04:51;4.10;95.70
1996;DHT22;38556;47.068;15.408;2022-12-11T06:07:19;4.10;95.40
1996;DHT22;38556;47.068;15.408;2022-12-11T06:09:46;4.10;95.60
1996;DHT22;38556;47.068;15.408;2022-12-11T06:12:13;4.00;95.00
1996;DHT22;38556;47.068;15.408;2022-12-11T06:14:41;4.00;95.30
1996;DHT22;38556;47.068;15.408;2022-12-11T06:17:08;4.00;94.90
1996;DHT22;38556;47.068;15.408;2022-12-11T06:19:38;4.00;95.10
1996;DHT22;38556;47.068;15.408;2022-12-11T06:22:05;5.50;95.70
1996;DHT22;38556;47.068;15.408;2022-12-11T06:27:00;3.90;94.90
1996;DHT22;38556;47.068;15.408;2022-12-11T06:29:28;4.00;95.10
1996;DHT22;38556;47.068;15.408;2022-12-11T06:31:55;3.90;94.70
1996;DHT22;38556;47.068;15.408;2022-12-11T06:34:22;4.00;94.50
1996;DHT22;38556;47.068;15.408;2022-12-11T06:36:51;3.90;94.50
1996;DHT22;38556;47.068;15.408;2022-12-11T06:39:18;4.50;99.90
1996;DHT22;38556;47.068;15.408;2022-12-11T06:41:45;4.50;99.90
1996;DHT22;38556;47.068;15.408;2022-12-11T06:44:12;5.20;99.90
1996;DHT22;38556;47.068;15.408;2022-12-11T06:46:40;5.30;99.90
1996;DHT22;38556;47.068;15.408;2022-12-11T06:49:07;4.40;94.30
1996;DHT22;38556;47.068;15.408;2022-12-11T06:51:35;4.10;94.60
1996;DHT22;38556;47.068;15.408;2022-12-11T06:54:03;4.00;94.30
1996;DHT22;38556;47.068;15.408;2022-12-11T06:56:33;4.00;94.50
1996;DHT22;38556;47.068;15.408;2022-12-11T06:59:00;4.00;94.50
1996;DHT22;38556;47.068;15.408;2022-12-11T07:01:28;4.00;94.80
1996;DHT22;38556;47.068;15.408;2022-12-11T07:03:57;3.90;94.10
1996;DHT22;38556;47.068;15.408;2022-12-11T07:06:26;3.90;94.30
1996;DHT22;38556;47.068;15.408;2022-12-11T07:08:54;3.80;94.40
1996;DHT22;38556;47.068;15.408;2022-12-11T07:11:23;3.90;94.30
1996;DHT22;38556;47.068;15.408;2022-12-11T07:13:50;3.80;93.80
1996;DHT22;38556;47.068;15.408;2022-12-11T07:16:18;3.90;94.20
1996;DHT22;38556;47.068;15.408;2022-12-11T07:18:47;3.80;94.10
1996;DHT22;38556;47.068;15.408;2022-12-11T07:21:16;3.80;93.60
1996;DHT22;38556;47.068;15.408;2022-12-11T07:23:43;4.00;96.90
1996;DHT22;38556;47.068;15.408;2022-12-11T07:26:12;3.80;93.80
1996;DHT22;38556;47.068;15.408;2022-12-11T07:28:41;3.80;93.50
1996;DHT22;38556;47.068;15.408;2022-12-11T07:31:10;3.80;93.40
1996;DHT22;38556;47.068;15.408;2022-12-11T07:33:38;3.70;93.20
1996;DHT22;38556;47.068;15.408;2022-12-11T07:36:08;3.80;93.40
1996;DHT22;38556;47.068;15.408;2022-12-11T07:38:36;3.70;93.00
1996;DHT22;38556;47.068;15.408;2022-12-11T07:41:04;3.70;93.20
1996;DHT22;38556;47.068;15.408;2022-12-11T07:43:32;3.70;93.20
1996;DHT22;38556;47.068;15.408;2022-12-11T07:46:02;3.70;93.00
1996;DHT22;38556;47.068;15.408;2022-12-11T07:48:30;3.70;92.80
1996;DHT22;38556;47.068;15.408;2022-12-11T07:51:07;3.70;92.90
1996;DHT22;38556;47.068;15.408;2022-12-11T07:53:34;3.70;92.80
1996;DHT22;38556;47.068;15.408;2022-12-11T07:56:02;3.80;93.60
1996;DHT22;38556;47.068;15.408;2022-12-11T07:58:30;3.80;93.90
1996;DHT22;38556;47.068;15.408;2022-12-11T08:00:57;3.80;92.30
1996;DHT22;38556;47.068;15.408;2022-12-11T08:03:26;3.80;92.20
1996;DHT22;38556;47.068;15.408;2022-12-11T08:05:53;3.70;92.30
1996;DHT22;38556;47.068;15.408;2022-12-11T08:08:20;3.80;92.40
1996;DHT22;38556;47.068;15.408;2022-12-11T08:10:48;3.80;92.00
1996;DHT22;38556;47.068;15.408;2022-12-11T08:13:15;3.80;92.30
1996;DHT22;38556;47.068;15.408;2022-12-11T08:15:42;3.80;92.20
1996;DHT22;38556;47.068;15.408;2022-12-11T08:18:10;3.70;92.00
1996;DHT22;38556;47.068;15.408;2022-12-11T08:20:38;3.80;91.60
1996;DHT22;38556;47.068;15.408;2022-12-11T08:25:34;3.90;91.50
1996;DHT22;38556;47.068;15.408;2022-12-11T08:28:01;3.90;91.40
1996;DHT22;38556;47.068;15.408;2022-12-11T08:30:29;3.90;91.90
1996;DHT22;38556;47.068;15.408;2022-12-11T08:32:56;3.90;91.40
1996;DHT22;38556;47.068;15.408;2022-12-11T08:35:25;3.90;91.30
1996;DHT22;38556;47.068;15.408;2022-12-11T08:37:53;3.90;91.00
1996;DHT22;38556;47.068;15.408;2022-12-11T08:40:21;3.90;91.00
1996;DHT22;38556;47.068;15.408;2022-12-11T08:42:48;3.90;91.30
1996;DHT22;38556;47.068;15.408;2022-12-11T08:45:17;3.90;90.60
1996;DHT22;38556;47.068;15.408;2022-12-11T08:47:44;3.80;90.60
1996;DHT22;38556;47.068;15.408;2022-12-11T08:50:11;3.80;90.60
1996;DHT22;38556;47.068;15.408;2022-12-11T08:52:38;3.90;90.60
1996;DHT22;38556;47.068;15.408;2022-12-11T08:55:08;3.80;90.30
1996;DHT22;38556;47.068;15.408;2022-12-11T08:57:35;3.80;90.40
1996;DHT22;38556;47.068;15.408;2022-12-11T09:00:06;3.90;90.10
1996;DHT22;38556;47.068;15.408;2022-12-11T09:02:34;3.90;90.50
1996;DHT22;38556;47.068;15.408;2022-12-11T09:05:02;3.90;90.30
1996;DHT22;38556;47.068;15.408;2022-12-11T09:07:32;3.80;90.20
1996;DHT22;38556;47.068;15.408;2022-12-11T09:10:00;3.80;89.60
1996;DHT22;38556;47.068;15.408;2022-12-11T09:12:28;3.90;90.10
1996;DHT22;38556;47.068;15.408;2022-12-11T09:14:56;3.90;90.40
1996;DHT22;38556;47.068;15.408;2022-12-11T09:17:23;3.90;90.00
1996;DHT22;38556;47.068;15.408;2022-12-11T09:19:51;3.80;89.20
1996;DHT22;38556;47.068;15.408;2022-12-11T09:22:18;3.80;88.70
1996;DHT22;38556;47.068;15.408;2022-12-11T09:24:46;3.80;88.70
1996;DHT22;38556;47.068;15.408;2022-12-11T09:27:13;3.80;88.90
1996;DHT22;38556;47.068;15.408;2022-12-11T09:29:42;3.80;89.70
1996;DHT22;38556;47.068;15.408;2022-12-11T09:32:09;3.80;89.50
1996;DHT22;38556;47.068;15.408;2022-12-11T09:34:36;3.90;90.10
1996;DHT22;38556;47.068;15.408;2022-12-11T09:37:03;3.90;89.50
1996;DHT22;38556;47.068;15.408;2022-12-11T09:39:31;3.90;89.80
1996;DHT22;38556;47.068;15.408;2022-12-11T09:42:03;3.90;90.20
1996;DHT22;38556;47.068;15.408;2022-12-11T09:44:33;3.90;89.50
1996;DHT22;38556;47.068;15.408;2022-12-11T09:47:20;3.90;89.30
1996;DHT22;38556;47.068;15.408;2022-12-11T09:49:50;4.00;88.20
1996;DHT22;38556;47.068;15.408;2022-12-11T09:52:24;3.90;88.00
1996;DHT22;38556;47.068;15.408;2022-12-11T09:54:57;4.00;88.20
1996;DHT22;38556;47.068;15.408;2022-12-11T09:57:37;4.00;88.50
1996;DHT22;38556;47.068;15.408;2022-12-11T10:00:13;3.80;86.00
1996;DHT22;38556;47.068;15.408;2022-12-11T10:02:59;3.80;86.10
1996;DHT22;38556;47.068;15.408;2022-12-11T10:05:36;3.80;86.40
1996;DHT22;38556;47.068;15.408;2022-12-11T10:08:11;3.80;86.40
1996;DHT22;38556;47.068;15.408;2022-12-11T10:10:44;3.90;86.80
1996;DHT22;38556;47.068;15.408;2022-12-11T10:13:22;4.00;86.50
1996;DHT22;38556;47.068;15.408;2022-12-11T10:15:55;4.00;87.30
1996;DHT22;38556;47.068;15.408;2022-12-11T10:18:27;3.90;84.70
1996;DHT22;38556;47.068;15.408;2022-12-11T10:23:27;3.60;83.60
1996;DHT22;38556;47.068;15.408;2022-12-11T10:26:03;3.60;82.90
1996;DHT22;38556;47.068;15.408;2022-12-11T10:28:31;3.60;83.70
1996;DHT22;38556;47.068;15.408;2022-12-11T10:31:03;3.60;82.60
1996;DHT22;38556;47.068;15.408;2022-12-11T10:33:39;3.70;83.30
1996;DHT22;38556;47.068;15.408;2022-12-11T10:36:08;3.70;83.20
1996;DHT22;38556;47.068;15.408;2022-12-11T10:38:39;3.70;84.10
1996;DHT22;38556;47.068;15.408;2022-12-11T10:41:11;3.60;83.60
1996;DHT22;38556;47.068;15.408;2022-12-11T10:43:41;3.80;83.10
1996;DHT22;38556;47.068;15.408;2022-12-11T10:46:14;3.80;82.90
1996;DHT22;38556;47.068;15.408;2022-12-11T10:48:46;3.80;82.60
1996;DHT22;38556;47.068;15.408;2022-12-11T10:51:14;3.80;83.00
1996;DHT22;38556;47.068;15.408;2022-12-11T10:53:41;3.70;82.70
1996;DHT22;38556;47.068;15.408;2022-12-11T10:56:10;3.70;81.90
1996;DHT22;38556;47.068;15.408;2022-12-11T10:58:46;3.70;82.70
1996;DHT22;38556;47.068;15.408;2022-12-11T11:03:54;3.80;82.30
1996;DHT22;38556;47.068;15.408;2022-12-11T11:06:24;4.10;91.40
1996;DHT22;38556;47.068;15.408;2022-12-11T11:08:53;3.90;83.00
1996;DHT22;38556;47.068;15.408;2022-12-11T11:11:27;3.90;81.80
1996;DHT22;38556;47.068;15.408;2022-12-11T11:14:12;3.80;81.70
1996;DHT22;38556;47.068;15.408;2022-12-11T11:16:42;3.80;82.00
1996;DHT22;38556;47.068;15.408;2022-12-11T11:19:19;3.80;82.50
1996;DHT22;38556;47.068;15.408;2022-12-11T11:21:49;3.90;82.80
1996;DHT22;38556;47.068;15.408;2022-12-11T11:24:25;3.80;81.80
1996;DHT22;38556;47.068;15.408;2022-12-11T11:29:26;3.80;81.10
1996;DHT22;38556;47.068;15.408;2022-12-11T11:31:55;3.70;80.60
1996;DHT22;38556;47.068;15.408;2022-12-11T11:34:24;3.70;79.30
1996;DHT22;38556;47.068;15.408;2022-12-11T11:36:58;3.60;79.40
1996;DHT22;38556;47.068;15.408;2022-12-11T11:39:33;3.70;80.50
1996;DHT22;38556;47.068;15.408;2022-12-11T11:42:05;3.70;80.60
1996;DHT22;38556;47.068;15.408;2022-12-11T11:44:40;3.80;80.50
1996;DHT22;38556;47.068;15.408;2022-12-11T11:47:11;3.70;80.30
1996;DHT22;38556;47.068;15.408;2022-12-11T11:49:51;3.80;79.90
1996;DHT22;38556;47.068;15.408;2022-12-11T11:52:24;3.70;79.10
1996;DHT22;38556;47.068;15.408;2022-12-11T11:55:00;3.70;79.10
1996;DHT22;38556;47.068;15.408;2022-12-11T11:57:36;3.60;79.10
1996;DHT22;38556;47.068;15.408;2022-12-11T12:00:16;3.50;78.90
1996;DHT22;38556;47.068;15.408;2022-12-11T12:02:46;3.50;79.00
1996;DHT22;38556;47.068;15.408;2022-12-11T12:05:18;3.60;78.70
1996;DHT22;38556;47.068;15.408;2022-12-11T12:07:56;3.60;78.30
1996;DHT22;38556;47.068;15.408;2022-12-11T12:10:30;3.60;79.00
1996;DHT22;38556;47.068;15.408;2022-12-11T12:13:02;3.60;79.80
1996;DHT22;38556;47.068;15.408;2022-12-11T12:15:38;3.60;79.60
1996;DHT22;38556;47.068;15.408;2022-12-11T12:18:17;3.50;78.50
1996;DHT22;38556;47.068;15.408;2022-12-11T12:20:54;3.50;78.50
1996;DHT22;38556;47.068;15.408;2022-12-11T12:23:39;3.60;79.10
1996;DHT22;38556;47.068;15.408;2022-12-11T12:26:16;3.40;78.10
1996;DHT22;38556;47.068;15.408;2022-12-11T12:28:51;3.40;78.20
1996;DHT22;38556;47.068;15.408;2022-12-11T12:31:34;3.40;78.70
1996;DHT22;38556;47.068;15.408;2022-12-11T12:34:11;3.40;79.30
1996;DHT22;38556;47.068;15.408;2022-12-11T12:36:47;3.40;78.30
1996;DHT22;38556;47.068;15.408;2022-12-11T12:39:24;3.40;78.20
1996;DHT22;38556;47.068;15.408;2022-12-11T12:41:59;3.40;77.60
1996;DHT22;38556;47.068;15.408;2022-12-11T12:44:30;3.40;78.00
1996;DHT22;38556;47.068;15.408;2022-12-11T12:47:03;3.50;78.50
1996;DHT22;38556;47.068;15.408;2022-12-11T12:49:36;3.30;77.00
1996;DHT22;38556;47.068;15.408;2022-12-11T12:52:12;3.60;78.20
1996;DHT22;38556;47.068;15.408;2022-12-11T12:54:40;3.20;77.50
1996;DHT22;38556;47.068;15.408;2022-12-11T12:57:09;3.30;77.20
1996;DHT22;38556;47.068;15.408;2022-12-11T12:59:36;3.10;76.70
1996;DHT22;38556;47.068;15.408;2022-12-11T13:02:04;3.10;78.20
1996;DHT22;38556;47.068;15.408;2022-12-11T13:04:36;3.20;76.50
1996;DHT22;38556;47.068;15.408;2022-12-11T13:07:16;3.10;75.50
1996;DHT22;38556;47.068;15.408;2022-12-11T13:09:55;3.00;75.70
1996;DHT22;38556;47.068;15.408;2022-12-11T13:12:32;3.00;76.30
1996;DHT22;38556;47.068;15.408;2022-12-11T13:15:00;3.10;76.30
1996;DHT22;38556;47.068;15.408;2022-12-11T13:17:36;3.10;76.20
1996;DHT22;38556;47.068;15.408;2022-12-11T13:20:15;3.00;75.60
1996;DHT22;38556;47.068;15.408;2022-12-11T13:22:52;3.00;75.90
1996;DHT22;38556;47.068;15.408;2022-12-11T13:25:24;2.90;75.30
1996;DHT22;38556;47.068;15.408;2022-12-11T13:27:52;2.80;74.70
1996;DHT22;38556;47.068;15.408;2022-12-11T13:30:30;2.90;76.50
1996;DHT22;38556;47.068;15.408;2022-12-11T13:33:02;2.90;77.30
1996;DHT22;38556;47.068;15.408;2022-12-11T13:35:30;2.80;76.70
1996;DHT22;38556;47.068;15.408;2022-12-11T13:38:05;2.80;76.30
1996;DHT22;38556;47.068;15.408;2022-12-11T13:40:37;2.60;77.10
1996;DHT22;38556;47.068;15.408;2022-12-11T13:43:14;2.60;77.80
1996;DHT22;38556;47.068;15.408;2022-12-11T13:45:46;2.60;77.30
1996;DHT22;38556;47.068;15.408;2022-12-11T13:48:18;2.50;78.00
1996;DHT22;38556;47.068;15.408;2022-12-11T13:50:48;2.50;78.50
1996;DHT22;38556;47.068;15.408;2022-12-11T13:53:20;2.40;78.70
1996;DHT22;38556;47.068;15.408;2022-12-11T13:55:56;2.30;79.50
1996;DHT22;38556;47.068;15.408;2022-12-11T13:58:24;2.20;79.60
1996;DHT22;38556;47.068;15.408;2022-12-11T14:01:06;2.30;80.00
1996;DHT22;38556;47.068;15.408;2022-12-11T14:03:38;2.20;79.90
1996;DHT22;38556;47.068;15.408;2022-12-11T14:06:08;2.20;80.70
1996;DHT22;38556;47.068;15.408;2022-12-11T14:08:41;2.00;79.80
1996;DHT22;38556;47.068;15.408;2022-12-11T14:11:20;2.10;80.50
1996;DHT22;38556;47.068;15.408;2022-12-11T14:13:48;2.00;80.40
1996;DHT22;38556;47.068;15.408;2022-12-11T14:16:20;2.10;81.10
1996;DHT22;38556;47.068;15.408;2022-12-11T14:18:49;2.00;81.10
1996;DHT22;38556;47.068;15.408;2022-12-11T14:23:53;1.90;80.40
1996;DHT22;38556;47.068;15.408;2022-12-11T14:26:24;1.90;81.10
1996;DHT22;38556;47.068;15.408;2022-12-11T14:28:52;2.00;81.60
1996;DHT22;38556;47.068;15.408;2022-12-11T14:31:24;1.90;81.60
1996;DHT22;38556;47.068;15.408;2022-12-11T14:33:56;1.90;82.30
1996;DHT22;38556;47.068;15.408;2022-12-11T14:36:25;1.90;82.10
1996;DHT22;38556;47.068;15.408;2022-12-11T14:38:58;1.80;82.30
1996;DHT22;38556;47.068;15.408;2022-12-11T14:41:34;1.70;82.90
1996;DHT22;38556;47.068;15.408;2022-12-11T14:44:11;1.70;83.60
1996;DHT22;38556;47.068;15.408;2022-12-11T14:46:44;1.70;84.00
1996;DHT22;38556;47.068;15.408;2022-12-11T14:49:19;1.60;84.10
1996;DHT22;38556;47.068;15.408;2022-12-11T14:54:26;1.70;84.20
1996;DHT22;38556;47.068;15.408;2022-12-11T14:56:54;1.70;84.40
1996;DHT22;38556;47.068;15.408;2022-12-11T14:59:25;1.70;84.50
1996;DHT22;38556;47.068;15.408;2022-12-11T15:02:00;1.70;84.80
1996;DHT22;38556;47.068;15.408;2022-12-11T15:04:30;1.70;84.40
1996;DHT22;38556;47.068;15.408;2022-12-11T15:06:58;1.70;84.80
1996;DHT22;38556;47.068;15.408;2022-12-11T15:09:35;1.70;83.90
1996;DHT22;38556;47.068;15.408;2022-12-11T15:12:09;1.60;84.50
1996;DHT22;38556;47.068;15.408;2022-12-11T15:14:41;1.60;85.30
1996;DHT22;38556;47.068;15.408;2022-12-11T15:17:14;1.60;85.50
1996;DHT22;38556;47.068;15.408;2022-12-11T15:19:46;1.60;85.00
1996;DHT22;38556;47.068;15.408;2022-12-11T15:22:16;1.60;85.00
1996;DHT22;38556;47.068;15.408;2022-12-11T15:24:49;1.70;86.20
1996;DHT22;38556;47.068;15.408;2022-12-11T15:27:24;1.60;85.90
1996;DHT22;38556;47.068;15.408;2022-12-11T15:29:52;1.50;86.70
1996;DHT22;38556;47.068;15.408;2022-12-11T15:32:20;1.50;87.40
1996;DHT22;38556;47.068;15.408;2022-12-11T15:34:49;1.50;88.00
1996;DHT22;38556;47.068;15.408;2022-12-11T15:37:19;1.40;89.20
1996;DHT22;38556;47.068;15.408;2022-12-11T15:39:48;1.40;89.90
1996;DHT22;38556;47.068;15.408;2022-12-11T15:42:25;1.70;94.60
1996;DHT22;38556;47.068;15.408;2022-12-11T15:44:53;1.60;91.60
1996;DHT22;38556;47.068;15.408;2022-12-11T15:47:24;1.70;91.00
1996;DHT22;38556;47.068;15.408;2022-12-11T15:49:53;1.60;90.60
1996;DHT22;38556;47.068;15.408;2022-12-11T15:52:21;1.50;90.30
1996;DHT22;38556;47.068;15.408;2022-12-11T15:54:50;1.30;90.30
1996;DHT22;38556;47.068;15.408;2022-12-11T15:57:19;1.40;90.70
1996;DHT22;38556;47.068;15.408;2022-12-11T15:59:48;1.40;90.90
1996;DHT22;38556;47.068;15.408;2022-12-11T16:02:17;1.40;90.90
1996;DHT22;38556;47.068;15.408;2022-12-11T16:04:44;1.30;91.10
1996;DHT22;38556;47.068;15.408;2022-12-11T16:07:16;1.30;90.90
1996;DHT22;38556;47.068;15.408;2022-12-11T16:09:44;1.20;90.90
1996;DHT22;38556;47.068;15.408;2022-12-11T16:12:14;1.10;91.40
1996;DHT22;38556;47.068;15.408;2022-12-11T16:14:42;1.00;91.80
1996;DHT22;38556;47.068;15.408;2022-12-11T16:17:11;1.00;92.20
1996;DHT22;38556;47.068;15.408;2022-12-11T16:19:41;0.90;93.00
1996;DHT22;38556;47.068;15.408;2022-12-11T16:22:09;0.80;93.50
1996;DHT22;38556;47.068;15.408;2022-12-11T16:24:38;0.70;93.70
1996;DHT22;38556;47.068;15.408;2022-12-11T16:27:06;0.70;94.00
1996;DHT22;38556;47.068;15.408;2022-12-11T16:29:36;0.60;94.40
1996;DHT22;38556;47.068;15.408;2022-12-11T16:32:07;0.60;94.70
1996;DHT22;38556;47.068;15.408;2022-12-11T16:34:36;0.60;95.00